sensor_id;sensor_type;location;lat;lon;timestamp;P1;durP1;ratioP1;P2;durP2;ratioP2
59127;SDS011;44912;52.754;5.994;2023-03-20T00:01:41;15.80;;;7.85;;
59127;SDS011;44912;52.754;5.994;2023-03-20T00:04:13;15.43;;;7.63;;
59127;SDS011;44912;52.754;5.994;2023-03-20T00:06:39;18.38;;;8.27;;
59127;SDS011;44912;52.754;5.994;2023-03-20T00:09:05;17.60;;;7.43;;
59127;SDS011;44912;52.754;5.994;2023-03-20T00:11:34;17.15;;;7.72;;
59127;SDS011;44912;52.754;5.994;2023-03-20T00:14:05;19.52;;;8.73;;
59127;SDS011;44912;52.754;5.994;2023-03-20T00:16:34;21.95;;;8.07;;
59127;SDS011;44912;52.754;5.994;2023-03-20T00:19:04;16.95;;;8.18;;
59127;SDS011;44912;52.754;5.994;2023-03-20T00:21:32;18.33;;;7.47;;
59127;SDS011;44912;52.754;5.994;2023-03-20T00:23:58;16.17;;;7.53;;
59127;SDS011;44912;52.754;5.994;2023-03-20T00:26:25;18.88;;;8.00;;
59127;SDS011;44912;52.754;5.994;2023-03-20T00:29:00;17.35;;;7.43;;
59127;SDS011;44912;52.754;5.994;2023-03-20T00:31:32;19.45;;;8.02;;
59127;SDS011;44912;52.754;5.994;2023-03-20T00:34:04;18.90;;;7.70;;
59127;SDS011;44912;52.754;5.994;2023-03-20T00:36:33;16.23;;;8.03;;
59127;SDS011;44912;52.754;5.994;2023-03-20T00:38:59;18.00;;;8.30;;
59127;SDS011;44912;52.754;5.994;2023-03-20T00:41:27;20.73;;;8.15;;
59127;SDS011;44912;52.754;5.994;2023-03-20T00:44:03;20.13;;;8.57;;
59127;SDS011;44912;52.754;5.994;2023-03-20T00:46:59;25.50;;;11.13;;
59127;SDS011;44912;52.754;5.994;2023-03-20T00:49:30;27.92;;;11.10;;
59127;SDS011;44912;52.754;5.994;2023-03-20T00:51:58;26.13;;;12.68;;
59127;SDS011;44912;52.754;5.994;2023-03-20T00:54:25;25.13;;;12.90;;
59127;SDS011;44912;52.754;5.994;2023-03-20T00:56:54;26.73;;;13.10;;
59127;SDS011;44912;52.754;5.994;2023-03-20T00:59:48;28.10;;;12.50;;
59127;SDS011;44912;52.754;5.994;2023-03-20T01:02:15;27.65;;;12.60;;
59127;SDS011;44912;52.754;5.994;2023-03-20T01:04:41;29.20;;;14.07;;
59127;SDS011;44912;52.754;5.994;2023-03-20T01:07:09;25.90;;;12.68;;
59127;SDS011;44912;52.754;5.994;2023-03-20T01:09:37;31.50;;;13.48;;
59127;SDS011;44912;52.754;5.994;2023-03-20T01:12:03;28.63;;;13.05;;
59127;SDS011;44912;52.754;5.994;2023-03-20T01:14:29;26.95;;;13.00;;
59127;SDS011;44912;52.754;5.994;2023-03-20T01:16:55;28.30;;;13.18;;
59127;SDS011;44912;52.754;5.994;2023-03-20T01:19:21;27.40;;;14.02;;
59127;SDS011;44912;52.754;5.994;2023-03-20T01:21:46;27.10;;;12.50;;
59127;SDS011;44912;52.754;5.994;2023-03-20T01:24:12;26.25;;;12.85;;
59127;SDS011;44912;52.754;5.994;2023-03-20T01:26:41;24.33;;;13.25;;
59127;SDS011;44912;52.754;5.994;2023-03-20T01:29:15;26.20;;;12.93;;
59127;SDS011;44912;52.754;5.994;2023-03-20T01:31:54;29.13;;;13.73;;
59127;SDS011;44912;52.754;5.994;2023-03-20T01:34:20;25.80;;;13.57;;
59127;SDS011;44912;52.754;5.994;2023-03-20T01:36:48;23.10;;;12.63;;
59127;SDS011;44912;52.754;5.994;2023-03-20T01:39:14;24.55;;;12.43;;
59127;SDS011;44912;52.754;5.994;2023-03-20T01:41:41;22.63;;;12.15;;
59127;SDS011;44912;52.754;5.994;2023-03-20T01:44:27;22.83;;;11.52;;
59127;SDS011;44912;52.754;5.994;2023-03-20T01:46:55;26.92;;;11.88;;
59127;SDS011;44912;52.754;5.994;2023-03-20T01:51:47;17.95;;;9.95;;
59127;SDS011;44912;52.754;5.994;2023-03-20T01:54:17;20.20;;;9.50;;
59127;SDS011;44912;52.754;5.994;2023-03-20T01:59:32;20.45;;;8.82;;
59127;SDS011;44912;52.754;5.994;2023-03-20T02:02:08;18.73;;;8.30;;
59127;SDS011;44912;52.754;5.994;2023-03-20T02:04:39;19.10;;;9.05;;
59127;SDS011;44912;52.754;5.994;2023-03-20T02:07:07;16.55;;;8.50;;
59127;SDS011;44912;52.754;5.994;2023-03-20T02:09:35;20.13;;;8.48;;
59127;SDS011;44912;52.754;5.994;2023-03-20T02:12:01;16.75;;;8.40;;
59127;SDS011;44912;52.754;5.994;2023-03-20T02:14:27;19.95;;;9.32;;
59127;SDS011;44912;52.754;5.994;2023-03-20T02:16:53;17.15;;;8.25;;
59127;SDS011;44912;52.754;5.994;2023-03-20T02:19:29;18.48;;;8.95;;
59127;SDS011;44912;52.754;5.994;2023-03-20T02:30:07;15.38;;;8.00;;
59127;SDS011;44912;52.754;5.994;2023-03-20T02:36:42;14.10;;;7.85;;
59127;SDS011;44912;52.754;5.994;2023-03-20T02:45:01;17.25;;;7.45;;
59127;SDS011;44912;52.754;5.994;2023-03-20T02:47:41;12.98;;;6.57;;
59127;SDS011;44912;52.754;5.994;2023-03-20T02:50:24;11.05;;;6.47;;
59127;SDS011;44912;52.754;5.994;2023-03-20T02:53:19;11.93;;;6.30;;
59127;SDS011;44912;52.754;5.994;2023-03-20T02:58:47;12.57;;;6.05;;
59127;SDS011;44912;52.754;5.994;2023-03-20T03:01:18;16.80;;;6.30;;
59127;SDS011;44912;52.754;5.994;2023-03-20T03:03:50;12.43;;;6.80;;
59127;SDS011;44912;52.754;5.994;2023-03-20T03:06:22;15.07;;;6.18;;
59127;SDS011;44912;52.754;5.994;2023-03-20T03:08:57;14.57;;;6.43;;
59127;SDS011;44912;52.754;5.994;2023-03-20T03:11:34;13.55;;;6.80;;
59127;SDS011;44912;52.754;5.994;2023-03-20T03:14:03;12.98;;;7.03;;
59127;SDS011;44912;52.754;5.994;2023-03-20T03:16:32;14.98;;;6.93;;
59127;SDS011;44912;52.754;5.994;2023-03-20T03:24:03;13.70;;;6.72;;
59127;SDS011;44912;52.754;5.994;2023-03-20T03:26:31;15.20;;;7.28;;
59127;SDS011;44912;52.754;5.994;2023-03-20T03:29:09;16.85;;;6.78;;
59127;SDS011;44912;52.754;5.994;2023-03-20T03:31:39;13.32;;;6.45;;
59127;SDS011;44912;52.754;5.994;2023-03-20T03:34:07;15.07;;;6.97;;
59127;SDS011;44912;52.754;5.994;2023-03-20T03:41:39;14.27;;;6.57;;
59127;SDS011;44912;52.754;5.994;2023-03-20T03:44:31;14.30;;;6.55;;
59127;SDS011;44912;52.754;5.994;2023-03-20T03:47:11;14.50;;;7.00;;
59127;SDS011;44912;52.754;5.994;2023-03-20T03:49:43;14.45;;;6.63;;
59127;SDS011;44912;52.754;5.994;2023-03-20T03:52:18;15.75;;;7.47;;
59127;SDS011;44912;52.754;5.994;2023-03-20T03:54:58;16.80;;;7.30;;
59127;SDS011;44912;52.754;5.994;2023-03-20T03:57:43;17.63;;;7.72;;
59127;SDS011;44912;52.754;5.994;2023-03-20T04:00:14;13.73;;;6.88;;
59127;SDS011;44912;52.754;5.994;2023-03-20T04:02:44;17.25;;;7.97;;
59127;SDS011;44912;52.754;5.994;2023-03-20T04:05:13;17.42;;;7.93;;
59127;SDS011;44912;52.754;5.994;2023-03-20T04:07:43;13.60;;;7.93;;
59127;SDS011;44912;52.754;5.994;2023-03-20T04:10:10;18.02;;;8.50;;
59127;SDS011;44912;52.754;5.994;2023-03-20T04:12:37;19.45;;;8.23;;
59127;SDS011;44912;52.754;5.994;2023-03-20T04:15:06;17.00;;;8.40;;
59127;SDS011;44912;52.754;5.994;2023-03-20T04:17:32;16.75;;;8.70;;
59127;SDS011;44912;52.754;5.994;2023-03-20T04:19:58;21.08;;;9.55;;
59127;SDS011;44912;52.754;5.994;2023-03-20T04:22:24;20.27;;;9.73;;
59127;SDS011;44912;52.754;5.994;2023-03-20T04:24:50;16.20;;;9.25;;
59127;SDS011;44912;52.754;5.994;2023-03-20T04:27:16;16.55;;;9.93;;
59127;SDS011;44912;52.754;5.994;2023-03-20T04:29:42;20.95;;;11.50;;
59127;SDS011;44912;52.754;5.994;2023-03-20T04:32:08;20.95;;;10.88;;
59127;SDS011;44912;52.754;5.994;2023-03-20T04:34:34;19.38;;;11.10;;
59127;SDS011;44912;52.754;5.994;2023-03-20T04:37:00;20.27;;;11.25;;
59127;SDS011;44912;52.754;5.994;2023-03-20T04:39:26;18.20;;;10.93;;
59127;SDS011;44912;52.754;5.994;2023-03-20T04:41:52;17.98;;;11.00;;
59127;SDS011;44912;52.754;5.994;2023-03-20T04:44:18;16.00;;;10.88;;
59127;SDS011;44912;52.754;5.994;2023-03-20T04:46:43;19.90;;;10.85;;
59127;SDS011;44912;52.754;5.994;2023-03-20T04:49:09;16.83;;;9.45;;
59127;SDS011;44912;52.754;5.994;2023-03-20T04:51:35;17.20;;;10.38;;
59127;SDS011;44912;52.754;5.994;2023-03-20T04:54:00;19.42;;;10.23;;
59127;SDS011;44912;52.754;5.994;2023-03-20T04:56:26;20.23;;;10.15;;
59127;SDS011;44912;52.754;5.994;2023-03-20T04:58:52;19.23;;;10.43;;
59127;SDS011;44912;52.754;5.994;2023-03-20T05:01:17;18.95;;;10.30;;
59127;SDS011;44912;52.754;5.994;2023-03-20T05:03:43;20.95;;;10.00;;
59127;SDS011;44912;52.754;5.994;2023-03-20T05:06:08;21.45;;;11.23;;
59127;SDS011;44912;52.754;5.994;2023-03-20T05:08:34;18.58;;;9.95;;
59127;SDS011;44912;52.754;5.994;2023-03-20T05:11:00;17.50;;;10.60;;
59127;SDS011;44912;52.754;5.994;2023-03-20T05:13:26;19.08;;;10.40;;
59127;SDS011;44912;52.754;5.994;2023-03-20T05:15:54;18.83;;;9.82;;
59127;SDS011;44912;52.754;5.994;2023-03-20T05:18:20;14.98;;;10.02;;
59127;SDS011;44912;52.754;5.994;2023-03-20T05:20:48;16.85;;;9.77;;
59127;SDS011;44912;52.754;5.994;2023-03-20T05:23:14;18.50;;;9.95;;
59127;SDS011;44912;52.754;5.994;2023-03-20T05:25:40;15.80;;;9.88;;
59127;SDS011;44912;52.754;5.994;2023-03-20T05:28:05;16.48;;;10.38;;
59127;SDS011;44912;52.754;5.994;2023-03-20T05:30:31;17.63;;;10.25;;
59127;SDS011;44912;52.754;5.994;2023-03-20T05:32:57;18.38;;;10.23;;
59127;SDS011;44912;52.754;5.994;2023-03-20T05:35:22;19.52;;;10.50;;
59127;SDS011;44912;52.754;5.994;2023-03-20T05:37:48;17.00;;;10.43;;
59127;SDS011;44912;52.754;5.994;2023-03-20T05:40:14;21.48;;;10.13;;
59127;SDS011;44912;52.754;5.994;2023-03-20T05:42:43;17.30;;;10.23;;
59127;SDS011;44912;52.754;5.994;2023-03-20T05:45:09;17.60;;;10.57;;
59127;SDS011;44912;52.754;5.994;2023-03-20T05:47:37;20.05;;;10.27;;
59127;SDS011;44912;52.754;5.994;2023-03-20T05:50:03;17.73;;;10.43;;
59127;SDS011;44912;52.754;5.994;2023-03-20T05:52:29;19.50;;;11.27;;
59127;SDS011;44912;52.754;5.994;2023-03-20T05:54:55;19.20;;;10.63;;
59127;SDS011;44912;52.754;5.994;2023-03-20T05:57:20;18.63;;;10.88;;
59127;SDS011;44912;52.754;5.994;2023-03-20T05:59:46;20.67;;;11.52;;
59127;SDS011;44912;52.754;5.994;2023-03-20T06:02:12;20.20;;;10.93;;
59127;SDS011;44912;52.754;5.994;2023-03-20T06:04:37;20.40;;;12.45;;
59127;SDS011;44912;52.754;5.994;2023-03-20T06:07:03;21.17;;;11.98;;
59127;SDS011;44912;52.754;5.994;2023-03-20T06:09:30;23.48;;;11.68;;
59127;SDS011;44912;52.754;5.994;2023-03-20T06:11:56;23.98;;;12.77;;
59127;SDS011;44912;52.754;5.994;2023-03-20T06:14:21;23.33;;;12.38;;
59127;SDS011;44912;52.754;5.994;2023-03-20T06:16:47;20.48;;;11.77;;
59127;SDS011;44912;52.754;5.994;2023-03-20T06:19:13;23.48;;;12.43;;
59127;SDS011;44912;52.754;5.994;2023-03-20T06:21:38;21.95;;;12.23;;
59127;SDS011;44912;52.754;5.994;2023-03-20T06:24:04;21.80;;;12.32;;
59127;SDS011;44912;52.754;5.994;2023-03-20T06:26:29;25.65;;;12.88;;
59127;SDS011;44912;52.754;5.994;2023-03-20T06:28:55;24.92;;;13.80;;
59127;SDS011;44912;52.754;5.994;2023-03-20T06:31:21;25.55;;;13.60;;
59127;SDS011;44912;52.754;5.994;2023-03-20T06:33:47;23.45;;;12.68;;
59127;SDS011;44912;52.754;5.994;2023-03-20T06:36:13;23.23;;;13.25;;
59127;SDS011;44912;52.754;5.994;2023-03-20T06:38:39;24.80;;;14.05;;
59127;SDS011;44912;52.754;5.994;2023-03-20T06:41:04;27.95;;;13.52;;
59127;SDS011;44912;52.754;5.994;2023-03-20T06:43:30;26.33;;;13.38;;
59127;SDS011;44912;52.754;5.994;2023-03-20T06:45:56;27.50;;;14.80;;
59127;SDS011;44912;52.754;5.994;2023-03-20T06:48:22;26.48;;;13.48;;
59127;SDS011;44912;52.754;5.994;2023-03-20T06:50:48;23.65;;;14.05;;
59127;SDS011;44912;52.754;5.994;2023-03-20T06:53:15;23.67;;;13.70;;
59127;SDS011;44912;52.754;5.994;2023-03-20T06:55:41;25.33;;;13.88;;
59127;SDS011;44912;52.754;5.994;2023-03-20T06:58:10;24.30;;;13.52;;
59127;SDS011;44912;52.754;5.994;2023-03-20T07:00:35;26.35;;;14.32;;
59127;SDS011;44912;52.754;5.994;2023-03-20T07:03:01;25.52;;;13.73;;
59127;SDS011;44912;52.754;5.994;2023-03-20T07:05:27;24.27;;;13.40;;
59127;SDS011;44912;52.754;5.994;2023-03-20T07:07:53;22.73;;;13.52;;
59127;SDS011;44912;52.754;5.994;2023-03-20T07:10:18;21.65;;;13.80;;
59127;SDS011;44912;52.754;5.994;2023-03-20T07:12:44;27.02;;;14.15;;
59127;SDS011;44912;52.754;5.994;2023-03-20T07:15:10;24.98;;;13.93;;
59127;SDS011;44912;52.754;5.994;2023-03-20T07:17:36;23.58;;;14.48;;
59127;SDS011;44912;52.754;5.994;2023-03-20T07:20:02;24.90;;;13.98;;
59127;SDS011;44912;52.754;5.994;2023-03-20T07:22:28;24.60;;;13.27;;
59127;SDS011;44912;52.754;5.994;2023-03-20T07:24:55;25.00;;;14.18;;
59127;SDS011;44912;52.754;5.994;2023-03-20T07:27:21;28.45;;;13.40;;
59127;SDS011;44912;52.754;5.994;2023-03-20T07:29:47;26.60;;;14.32;;
59127;SDS011;44912;52.754;5.994;2023-03-20T07:32:13;24.15;;;13.15;;
59127;SDS011;44912;52.754;5.994;2023-03-20T07:34:39;26.27;;;13.85;;
59127;SDS011;44912;52.754;5.994;2023-03-20T07:37:05;24.35;;;13.80;;
59127;SDS011;44912;52.754;5.994;2023-03-20T07:39:31;23.52;;;13.70;;
59127;SDS011;44912;52.754;5.994;2023-03-20T07:41:56;23.02;;;13.45;;
59127;SDS011;44912;52.754;5.994;2023-03-20T07:44:22;25.33;;;13.60;;
59127;SDS011;44912;52.754;5.994;2023-03-20T07:46:47;22.95;;;13.30;;
59127;SDS011;44912;52.754;5.994;2023-03-20T07:49:13;23.02;;;14.27;;
59127;SDS011;44912;52.754;5.994;2023-03-20T07:51:42;22.27;;;12.32;;
59127;SDS011;44912;52.754;5.994;2023-03-20T07:54:11;26.73;;;14.05;;
59127;SDS011;44912;52.754;5.994;2023-03-20T07:56:37;21.55;;;12.75;;
59127;SDS011;44912;52.754;5.994;2023-03-20T07:59:02;25.40;;;12.48;;
59127;SDS011;44912;52.754;5.994;2023-03-20T08:01:28;23.58;;;14.20;;
59127;SDS011;44912;52.754;5.994;2023-03-20T08:03:54;21.90;;;12.48;;
59127;SDS011;44912;52.754;5.994;2023-03-20T08:06:20;25.00;;;13.13;;
59127;SDS011;44912;52.754;5.994;2023-03-20T08:08:45;23.85;;;13.15;;
59127;SDS011;44912;52.754;5.994;2023-03-20T08:11:11;22.02;;;12.73;;
59127;SDS011;44912;52.754;5.994;2023-03-20T08:13:37;21.85;;;12.55;;
59127;SDS011;44912;52.754;5.994;2023-03-20T08:16:03;23.10;;;13.23;;
59127;SDS011;44912;52.754;5.994;2023-03-20T08:18:29;17.58;;;12.10;;
59127;SDS011;44912;52.754;5.994;2023-03-20T08:20:54;21.50;;;12.93;;
59127;SDS011;44912;52.754;5.994;2023-03-20T08:23:20;23.75;;;13.32;;
59127;SDS011;44912;52.754;5.994;2023-03-20T08:25:49;22.23;;;13.07;;
59127;SDS011;44912;52.754;5.994;2023-03-20T08:28:16;20.58;;;12.70;;
59127;SDS011;44912;52.754;5.994;2023-03-20T08:30:42;20.63;;;13.00;;
59127;SDS011;44912;52.754;5.994;2023-03-20T08:33:08;21.75;;;13.02;;
59127;SDS011;44912;52.754;5.994;2023-03-20T08:35:34;22.70;;;12.95;;
59127;SDS011;44912;52.754;5.994;2023-03-20T08:38:00;20.67;;;12.13;;
59127;SDS011;44912;52.754;5.994;2023-03-20T08:40:26;21.02;;;12.60;;
59127;SDS011;44912;52.754;5.994;2023-03-20T08:42:51;21.63;;;13.00;;
59127;SDS011;44912;52.754;5.994;2023-03-20T08:45:17;21.67;;;12.73;;
59127;SDS011;44912;52.754;5.994;2023-03-20T08:47:45;19.60;;;12.15;;
59127;SDS011;44912;52.754;5.994;2023-03-20T08:50:12;20.73;;;12.20;;
59127;SDS011;44912;52.754;5.994;2023-03-20T08:52:38;19.58;;;12.13;;
59127;SDS011;44912;52.754;5.994;2023-03-20T08:55:08;22.20;;;12.10;;
59127;SDS011;44912;52.754;5.994;2023-03-20T08:57:34;18.35;;;11.77;;
59127;SDS011;44912;52.754;5.994;2023-03-20T09:00:02;19.25;;;11.15;;
59127;SDS011;44912;52.754;5.994;2023-03-20T09:02:28;21.50;;;11.68;;
59127;SDS011;44912;52.754;5.994;2023-03-20T09:04:54;19.88;;;11.25;;
59127;SDS011;44912;52.754;5.994;2023-03-20T09:07:20;18.73;;;11.98;;
59127;SDS011;44912;52.754;5.994;2023-03-20T09:09:46;18.75;;;11.10;;
59127;SDS011;44912;52.754;5.994;2023-03-20T09:12:12;19.70;;;10.95;;
59127;SDS011;44912;52.754;5.994;2023-03-20T09:14:37;20.55;;;11.30;;
59127;SDS011;44912;52.754;5.994;2023-03-20T09:17:06;18.02;;;10.88;;
59127;SDS011;44912;52.754;5.994;2023-03-20T09:19:33;21.85;;;12.02;;
59127;SDS011;44912;52.754;5.994;2023-03-20T09:21:59;21.80;;;11.63;;
59127;SDS011;44912;52.754;5.994;2023-03-20T09:24:25;18.30;;;11.43;;
59127;SDS011;44912;52.754;5.994;2023-03-20T09:26:50;17.63;;;10.77;;
59127;SDS011;44912;52.754;5.994;2023-03-20T09:29:16;16.75;;;10.43;;
59127;SDS011;44912;52.754;5.994;2023-03-20T09:31:42;18.92;;;10.65;;
59127;SDS011;44912;52.754;5.994;2023-03-20T09:34:07;19.20;;;10.25;;
59127;SDS011;44912;52.754;5.994;2023-03-20T09:36:33;18.75;;;9.50;;
59127;SDS011;44912;52.754;5.994;2023-03-20T09:38:59;18.15;;;9.77;;
59127;SDS011;44912;52.754;5.994;2023-03-20T09:41:25;16.15;;;10.02;;
59127;SDS011;44912;52.754;5.994;2023-03-20T09:43:55;20.15;;;10.13;;
59127;SDS011;44912;52.754;5.994;2023-03-20T09:49:29;17.98;;;10.23;;
59127;SDS011;44912;52.754;5.994;2023-03-20T09:52:33;18.50;;;9.48;;
59127;SDS011;44912;52.754;5.994;2023-03-20T09:54:56;19.15;;;9.43;;
59127;SDS011;44912;52.754;5.994;2023-03-20T09:57:33;19.15;;;9.88;;
59127;SDS011;44912;52.754;5.994;2023-03-20T10:00:10;16.48;;;8.82;;
59127;SDS011;44912;52.754;5.994;2023-03-20T10:02:49;18.27;;;8.27;;
59127;SDS011;44912;52.754;5.994;2023-03-20T10:05:42;16.55;;;8.52;;
59127;SDS011;44912;52.754;5.994;2023-03-20T10:08:12;14.50;;;7.68;;
59127;SDS011;44912;52.754;5.994;2023-03-20T10:13:43;16.23;;;8.02;;
59127;SDS011;44912;52.754;5.994;2023-03-20T10:19:30;13.10;;;6.55;;
59127;SDS011;44912;52.754;5.994;2023-03-20T10:22:16;14.23;;;6.75;;
59127;SDS011;44912;52.754;5.994;2023-03-20T10:25:07;14.70;;;6.55;;
59127;SDS011;44912;52.754;5.994;2023-03-20T10:27:51;14.15;;;5.10;;
59127;SDS011;44912;52.754;5.994;2023-03-20T10:33:18;13.05;;;5.35;;
59127;SDS011;44912;52.754;5.994;2023-03-20T10:36:00;14.88;;;5.70;;
59127;SDS011;44912;52.754;5.994;2023-03-20T10:41:09;13.02;;;5.82;;
59127;SDS011;44912;52.754;5.994;2023-03-20T10:43:41;13.90;;;5.50;;
59127;SDS011;44912;52.754;5.994;2023-03-20T10:46:10;12.73;;;5.43;;
59127;SDS011;44912;52.754;5.994;2023-03-20T10:48:48;11.48;;;5.68;;
59127;SDS011;44912;52.754;5.994;2023-03-20T10:51:17;13.38;;;5.22;;
59127;SDS011;44912;52.754;5.994;2023-03-20T10:53:47;10.90;;;5.03;;
59127;SDS011;44912;52.754;5.994;2023-03-20T10:56:22;12.45;;;4.70;;
59127;SDS011;44912;52.754;5.994;2023-03-20T10:58:58;12.57;;;4.85;;
59127;SDS011;44912;52.754;5.994;2023-03-20T11:01:31;16.40;;;5.25;;
59127;SDS011;44912;52.754;5.994;2023-03-20T11:03:57;15.07;;;5.35;;
59127;SDS011;44912;52.754;5.994;2023-03-20T11:06:27;12.15;;;5.35;;
59127;SDS011;44912;52.754;5.994;2023-03-20T11:08:57;13.70;;;5.35;;
59127;SDS011;44912;52.754;5.994;2023-03-20T11:11:36;14.90;;;5.53;;
59127;SDS011;44912;52.754;5.994;2023-03-20T11:14:09;11.23;;;5.30;;
59127;SDS011;44912;52.754;5.994;2023-03-20T11:16:42;13.88;;;5.65;;
59127;SDS011;44912;52.754;5.994;2023-03-20T11:19:13;14.48;;;5.72;;
59127;SDS011;44912;52.754;5.994;2023-03-20T11:24:51;13.90;;;5.00;;
59127;SDS011;44912;52.754;5.994;2023-03-20T11:27:23;13.15;;;5.63;;
59127;SDS011;44912;52.754;5.994;2023-03-20T11:29:51;12.02;;;5.35;;
59127;SDS011;44912;52.754;5.994;2023-03-20T11:32:34;13.98;;;6.20;;
59127;SDS011;44912;52.754;5.994;2023-03-20T11:35:17;13.60;;;5.85;;
59127;SDS011;44912;52.754;5.994;2023-03-20T11:37:53;13.73;;;5.82;;
59127;SDS011;44912;52.754;5.994;2023-03-20T11:40:31;12.55;;;5.70;;
59127;SDS011;44912;52.754;5.994;2023-03-20T11:45:26;11.98;;;5.85;;
59127;SDS011;44912;52.754;5.994;2023-03-20T11:48:00;15.95;;;6.13;;
59127;SDS011;44912;52.754;5.994;2023-03-20T11:50:41;14.75;;;5.70;;
59127;SDS011;44912;52.754;5.994;2023-03-20T11:53:18;12.55;;;5.45;;
59127;SDS011;44912;52.754;5.994;2023-03-20T11:55:59;15.10;;;5.65;;
59127;SDS011;44912;52.754;5.994;2023-03-20T11:58:56;13.38;;;5.45;;
59127;SDS011;44912;52.754;5.994;2023-03-20T12:01:37;11.93;;;5.10;;
59127;SDS011;44912;52.754;5.994;2023-03-20T12:07:03;13.50;;;5.75;;
59127;SDS011;44912;52.754;5.994;2023-03-20T12:09:51;11.57;;;5.65;;
59127;SDS011;44912;52.754;5.994;2023-03-20T12:15:24;12.13;;;6.20;;
59127;SDS011;44912;52.754;5.994;2023-03-20T12:18:14;12.23;;;6.30;;
59127;SDS011;44912;52.754;5.994;2023-03-20T12:23:46;12.40;;;6.85;;
59127;SDS011;44912;52.754;5.994;2023-03-20T12:26:44;14.32;;;6.47;;
59127;SDS011;44912;52.754;5.994;2023-03-20T12:32:09;15.85;;;7.00;;
59127;SDS011;44912;52.754;5.994;2023-03-20T12:34:53;15.05;;;7.20;;
59127;SDS011;44912;52.754;5.994;2023-03-20T12:37:35;14.85;;;7.80;;
59127;SDS011;44912;52.754;5.994;2023-03-20T12:40:00;15.75;;;8.60;;
59127;SDS011;44912;52.754;5.994;2023-03-20T12:45:20;15.13;;;8.30;;
59127;SDS011;44912;52.754;5.994;2023-03-20T12:50:47;17.33;;;9.17;;
59127;SDS011;44912;52.754;5.994;2023-03-20T13:01:20;17.80;;;9.77;;
59127;SDS011;44912;52.754;5.994;2023-03-20T13:03:56;15.20;;;9.43;;
59127;SDS011;44912;52.754;5.994;2023-03-20T13:06:50;19.88;;;10.50;;
59127;SDS011;44912;52.754;5.994;2023-03-20T13:14:34;20.45;;;11.60;;
59127;SDS011;44912;52.754;5.994;2023-03-20T13:20:24;17.65;;;11.35;;
59127;SDS011;44912;52.754;5.994;2023-03-20T13:23:01;20.20;;;11.50;;
59127;SDS011;44912;52.754;5.994;2023-03-20T13:29:01;21.98;;;12.40;;
59127;SDS011;44912;52.754;5.994;2023-03-20T13:37:16;23.92;;;13.60;;
59127;SDS011;44912;52.754;5.994;2023-03-20T13:39:44;21.50;;;13.20;;
59127;SDS011;44912;52.754;5.994;2023-03-20T13:42:24;19.42;;;13.88;;
59127;SDS011;44912;52.754;5.994;2023-03-20T13:44:58;25.15;;;14.90;;
59127;SDS011;44912;52.754;5.994;2023-03-20T13:47:31;20.73;;;14.90;;
59127;SDS011;44912;52.754;5.994;2023-03-20T13:52:48;24.95;;;14.98;;
59127;SDS011;44912;52.754;5.994;2023-03-20T13:55:25;21.70;;;15.20;;
59127;SDS011;44912;52.754;5.994;2023-03-20T14:06:42;20.55;;;15.93;;
59127;SDS011;44912;52.754;5.994;2023-03-20T14:09:27;24.45;;;17.27;;
59127;SDS011;44912;52.754;5.994;2023-03-20T14:12:07;22.02;;;17.52;;
59127;SDS011;44912;52.754;5.994;2023-03-20T14:17:11;25.15;;;16.90;;
59127;SDS011;44912;52.754;5.994;2023-03-20T14:19:38;22.30;;;16.42;;
59127;SDS011;44912;52.754;5.994;2023-03-20T14:22:03;25.98;;;17.35;;
59127;SDS011;44912;52.754;5.994;2023-03-20T14:24:31;24.25;;;17.02;;
59127;SDS011;44912;52.754;5.994;2023-03-20T14:27:00;21.92;;;16.70;;
59127;SDS011;44912;52.754;5.994;2023-03-20T14:29:37;24.15;;;18.35;;
59127;SDS011;44912;52.754;5.994;2023-03-20T14:32:03;21.25;;;17.15;;
59127;SDS011;44912;52.754;5.994;2023-03-20T14:34:43;20.58;;;15.93;;
59127;SDS011;44912;52.754;5.994;2023-03-20T14:37:34;22.50;;;16.10;;
59127;SDS011;44912;52.754;5.994;2023-03-20T14:40:11;22.02;;;15.75;;
59127;SDS011;44912;52.754;5.994;2023-03-20T14:42:47;18.65;;;15.73;;
59127;SDS011;44912;52.754;5.994;2023-03-20T14:45:36;21.88;;;16.58;;
59127;SDS011;44912;52.754;5.994;2023-03-20T14:50:47;18.52;;;15.32;;
59127;SDS011;44912;52.754;5.994;2023-03-20T14:53:20;23.10;;;18.02;;
59127;SDS011;44912;52.754;5.994;2023-03-20T15:01:03;20.92;;;16.40;;
59127;SDS011;44912;52.754;5.994;2023-03-20T15:03:38;23.05;;;18.13;;
59127;SDS011;44912;52.754;5.994;2023-03-20T15:06:06;23.02;;;17.20;;
59127;SDS011;44912;52.754;5.994;2023-03-20T15:08:34;20.20;;;17.73;;
59127;SDS011;44912;52.754;5.994;2023-03-20T15:11:12;19.35;;;16.80;;
59127;SDS011;44912;52.754;5.994;2023-03-20T15:13:39;19.58;;;16.80;;
59127;SDS011;44912;52.754;5.994;2023-03-20T15:16:08;22.60;;;17.95;;
59127;SDS011;44912;52.754;5.994;2023-03-20T15:18:40;24.23;;;18.13;;
59127;SDS011;44912;52.754;5.994;2023-03-20T15:21:18;21.27;;;17.50;;
59127;SDS011;44912;52.754;5.994;2023-03-20T15:23:47;21.27;;;16.08;;
59127;SDS011;44912;52.754;5.994;2023-03-20T15:26:13;22.23;;;16.40;;
59127;SDS011;44912;52.754;5.994;2023-03-20T15:28:42;19.40;;;16.60;;
59127;SDS011;44912;52.754;5.994;2023-03-20T15:31:17;20.30;;;15.85;;
59127;SDS011;44912;52.754;5.994;2023-03-20T15:33:54;19.67;;;17.08;;
59127;SDS011;44912;52.754;5.994;2023-03-20T15:36:21;22.38;;;16.70;;
59127;SDS011;44912;52.754;5.994;2023-03-20T15:39:00;22.42;;;19.83;;
59127;SDS011;44912;52.754;5.994;2023-03-20T15:41:37;20.92;;;16.58;;
59127;SDS011;44912;52.754;5.994;2023-03-20T15:46:40;18.77;;;15.48;;
59127;SDS011;44912;52.754;5.994;2023-03-20T15:49:22;21.65;;;15.57;;
59127;SDS011;44912;52.754;5.994;2023-03-20T15:51:48;22.50;;;16.08;;
59127;SDS011;44912;52.754;5.994;2023-03-20T15:54:16;19.63;;;16.00;;
59127;SDS011;44912;52.754;5.994;2023-03-20T15:56:43;20.42;;;15.60;;
59127;SDS011;44912;52.754;5.994;2023-03-20T15:59:14;20.42;;;14.40;;
59127;SDS011;44912;52.754;5.994;2023-03-20T16:01:49;17.77;;;13.23;;
59127;SDS011;44912;52.754;5.994;2023-03-20T16:04:17;16.45;;;13.10;;
59127;SDS011;44912;52.754;5.994;2023-03-20T16:06:44;14.65;;;12.38;;
59127;SDS011;44912;52.754;5.994;2023-03-20T16:09:16;17.58;;;13.50;;
59127;SDS011;44912;52.754;5.994;2023-03-20T16:11:43;18.23;;;13.32;;
59127;SDS011;44912;52.754;5.994;2023-03-20T16:14:21;20.60;;;15.02;;
59127;SDS011;44912;52.754;5.994;2023-03-20T16:16:49;21.23;;;15.43;;
59127;SDS011;44912;52.754;5.994;2023-03-20T16:19:17;17.95;;;14.45;;
59127;SDS011;44912;52.754;5.994;2023-03-20T16:21:47;18.13;;;14.88;;
59127;SDS011;44912;52.754;5.994;2023-03-20T16:24:21;20.60;;;15.07;;
59127;SDS011;44912;52.754;5.994;2023-03-20T16:26:59;18.73;;;14.27;;
59127;SDS011;44912;52.754;5.994;2023-03-20T16:29:30;16.13;;;13.50;;
59127;SDS011;44912;52.754;5.994;2023-03-20T16:31:56;19.02;;;13.93;;
59127;SDS011;44912;52.754;5.994;2023-03-20T16:34:30;16.55;;;14.15;;
59127;SDS011;44912;52.754;5.994;2023-03-20T16:37:00;17.08;;;13.65;;
59127;SDS011;44912;52.754;5.994;2023-03-20T16:39:30;17.17;;;12.98;;
59127;SDS011;44912;52.754;5.994;2023-03-20T16:42:01;19.02;;;14.77;;
59127;SDS011;44912;52.754;5.994;2023-03-20T16:44:28;20.02;;;14.38;;
59127;SDS011;44912;52.754;5.994;2023-03-20T16:47:17;17.83;;;14.63;;
59127;SDS011;44912;52.754;5.994;2023-03-20T16:50:03;21.15;;;16.77;;